createdAt,value
2022-10-09T00:07:54.470Z,8.46
2022-10-09T00:08:54.928Z,8.41
2022-10-09T00:19:57.111Z,8.37
2022-10-09T00:20:56.983Z,8.37
2022-10-09T00:30:40.785Z,8.32
2022-10-09T00:31:40.045Z,8.34
2022-10-09T01:17:50.303Z,7.74
2022-10-09T01:18:50.013Z,7.74
2022-10-09T01:37:30.694Z,7.74
2022-10-09T01:38:30.579Z,7.68
2022-10-09T01:43:29.744Z,7.71
2022-10-09T01:44:29.559Z,7.78
2022-10-09T02:52:12.649Z,7.33
2022-10-09T02:53:12.309Z,7.28
2022-10-09T03:57:41.999Z,7.44
2022-10-09T03:58:41.825Z,7.42
2022-10-09T04:17:22.968Z,7.07
2022-10-09T04:18:22.654Z,7.16
2022-10-09T04:46:13.114Z,7.00
2022-10-09T04:47:13.660Z,6.96
2022-10-09T04:56:43.825Z,7.03
2022-10-09T04:57:43.623Z,7.04
2022-10-09T05:07:16.806Z,6.93
2022-10-09T05:08:16.526Z,6.92
2022-10-09T05:11:42.835Z,6.92
2022-10-09T05:12:41.275Z,6.92
2022-10-09T05:28:20.399Z,6.97
2022-10-09T05:29:20.303Z,6.88
2022-10-09T05:37:20.305Z,6.96
2022-10-09T05:38:20.053Z,7.03
2022-10-09T06:00:05.436Z,7.36
2022-10-09T06:01:04.782Z,7.42
2022-10-09T06:02:04.860Z,7.37
2022-10-09T06:03:04.651Z,7.49
2022-10-09T06:04:04.590Z,7.44
2022-10-09T06:20:10.888Z,7.77
2022-10-09T06:21:10.384Z,7.77
2022-10-09T06:32:12.914Z,7.99
2022-10-09T06:33:12.839Z,8.10
2022-10-09T07:01:12.935Z,9.09
2022-10-09T07:02:12.668Z,9.09
2022-10-09T07:03:12.617Z,9.14
2022-10-09T07:04:12.505Z,9.24
2022-10-09T07:05:12.436Z,9.33
2022-10-09T07:06:12.528Z,9.32
2022-10-09T07:07:12.303Z,9.29
2022-10-09T07:08:12.225Z,9.30
2022-10-09T07:09:12.165Z,9.30
2022-10-09T07:10:12.091Z,9.23
2022-10-09T07:11:12.026Z,9.33
2022-10-09T07:12:11.964Z,9.27
2022-10-09T07:13:11.894Z,9.33
2022-10-09T07:14:11.827Z,9.24
2022-10-09T07:15:11.762Z,9.36
2022-10-09T07:16:11.759Z,9.32
2022-10-09T07:17:11.631Z,9.37
2022-10-09T07:18:11.566Z,9.37
2022-10-09T07:19:11.631Z,9.45
2022-10-09T07:20:11.432Z,9.48
2022-10-09T07:21:11.369Z,9.54
2022-10-09T07:22:11.307Z,9.62
2022-10-09T07:23:11.236Z,9.57
2022-10-09T07:24:11.167Z,9.54
2022-10-09T07:25:11.101Z,9.52
2022-10-09T07:26:11.035Z,9.67
2022-10-09T07:27:10.978Z,9.60
2022-10-09T07:28:11.003Z,9.60
2022-10-09T07:29:10.841Z,9.63
2022-10-09T07:30:10.770Z,9.69
2022-10-09T07:31:10.751Z,9.70
2022-10-09T07:32:10.842Z,9.87
2022-10-09T07:33:10.577Z,9.87
2022-10-09T07:34:10.513Z,9.91
2022-10-09T07:35:10.442Z,9.87
2022-10-09T07:36:10.384Z,9.98
2022-10-09T07:37:10.312Z,9.98
2022-10-09T07:38:10.243Z,10.03
2022-10-09T07:39:10.187Z,9.96
2022-10-09T07:40:10.116Z,9.98
2022-10-09T07:41:10.057Z,10.01
2022-10-09T07:42:09.985Z,10.09
2022-10-09T07:43:09.917Z,10.17
2022-10-09T07:44:09.853Z,10.09
2022-10-09T07:45:09.800Z,10.14
2022-10-09T07:46:09.764Z,10.21
2022-10-09T07:47:09.653Z,10.27
2022-10-09T07:48:09.592Z,10.20
2022-10-09T07:49:09.525Z,10.23
2022-10-09T07:50:09.456Z,10.24
2022-10-09T07:51:09.393Z,10.27
2022-10-09T07:52:09.326Z,10.35
2022-10-09T07:53:09.266Z,10.28
2022-10-09T07:54:09.196Z,10.27
2022-10-09T07:55:09.133Z,10.28
2022-10-09T07:56:09.065Z,10.34
2022-10-09T07:57:09.001Z,10.43
2022-10-09T07:59:30.683Z,10.48
2022-10-09T08:00:30.386Z,10.55
2022-10-09T08:02:37.404Z,10.64
2022-10-09T08:03:37.158Z,10.70
2022-10-09T08:07:17.233Z,10.62
2022-10-09T08:08:17.022Z,10.64
2022-10-09T08:10:12.850Z,10.64
2022-10-09T08:11:12.657Z,10.61
2022-10-09T08:13:18.180Z,10.70
2022-10-09T08:14:19.490Z,10.72
2022-10-09T08:17:56.391Z,10.97
2022-10-09T08:18:56.061Z,10.91
2022-10-09T08:22:34.404Z,11.04
2022-10-09T08:23:34.172Z,11.00
2022-10-09T08:25:41.179Z,11.00
2022-10-09T08:26:40.928Z,10.97
2022-10-09T08:30:18.056Z,11.01
2022-10-09T08:31:17.898Z,11.04
2022-10-09T08:57:37.765Z,11.48
2022-10-09T08:58:37.477Z,11.49
2022-10-09T09:20:28.619Z,12.03
2022-10-09T09:21:28.562Z,12.03
2022-10-09T09:22:24.660Z,12.14
2022-10-09T09:23:24.408Z,12.13
2022-10-09T09:24:24.171Z,12.26
2022-10-09T09:25:24.621Z,12.22
2022-10-09T09:26:23.890Z,12.23
2022-10-09T09:27:23.905Z,12.26
2022-10-09T09:28:24.330Z,12.29
2022-10-09T09:29:26.647Z,12.35
2022-10-09T09:30:24.652Z,12.30
2022-10-09T09:31:23.687Z,12.30
2022-10-09T09:32:23.430Z,12.38
2022-10-09T09:33:23.314Z,12.23
2022-10-09T09:41:51.848Z,12.50
2022-10-09T09:42:51.634Z,12.48
2022-10-09T09:43:52.302Z,12.48
2022-10-09T09:44:51.336Z,12.51
2022-10-09T09:45:51.011Z,12.61
2022-10-09T09:46:50.802Z,12.62
2022-10-09T09:47:51.341Z,12.69
2022-10-09T09:48:50.657Z,12.73
2022-10-09T09:49:50.589Z,12.69
2022-10-09T09:51:04.952Z,12.83
2022-10-09T09:51:50.462Z,12.88
2022-10-09T09:52:50.396Z,12.98
2022-10-09T09:53:50.335Z,13.06
2022-10-09T09:54:50.268Z,13.05
2022-10-09T09:55:50.211Z,13.17
2022-10-09T09:57:21.835Z,13.30
2022-10-09T09:57:50.748Z,13.21
2022-10-09T09:58:50.020Z,13.24
2022-10-09T09:59:49.946Z,13.13
2022-10-09T10:00:49.919Z,13.27
2022-10-09T10:01:49.867Z,13.32
2022-10-09T10:02:50.098Z,13.23
2022-10-09T10:03:50.044Z,13.09
2022-10-09T10:04:49.656Z,13.09
2022-10-09T10:05:49.579Z,13.13
2022-10-09T10:06:49.478Z,13.13
2022-10-09T10:07:49.380Z,13.23
2022-10-09T10:08:49.591Z,13.23
2022-10-09T10:09:49.342Z,13.26
2022-10-09T10:10:49.221Z,13.35
2022-10-09T10:11:49.172Z,13.42
2022-10-09T10:12:49.439Z,13.36
2022-10-09T10:13:49.054Z,13.40
2022-10-09T10:14:49.445Z,13.47
2022-10-09T10:15:49.777Z,13.55
2022-10-09T10:16:49.201Z,13.75
2022-10-09T10:17:49.006Z,13.67
2022-10-09T10:18:49.003Z,13.68
2022-10-09T10:19:48.659Z,13.64
2022-10-09T10:20:48.923Z,13.83
2022-10-09T10:21:48.835Z,13.78
2022-10-09T10:22:48.780Z,13.76
2022-10-09T10:23:48.440Z,13.71
2022-10-09T10:24:48.360Z,13.60
2022-10-09T10:25:48.284Z,13.65
2022-10-09T10:26:48.244Z,13.63
2022-10-09T10:27:48.466Z,13.73
2022-10-09T10:28:48.086Z,13.75
2022-10-09T10:29:48.025Z,13.83
2022-10-09T10:30:47.960Z,13.83
2022-10-09T10:31:47.900Z,13.85
2022-10-09T10:32:47.841Z,13.82
2022-10-09T10:33:47.775Z,13.83
2022-10-09T10:34:47.733Z,13.78
2022-10-09T10:35:47.550Z,13.79
2022-10-09T10:36:47.860Z,13.79
2022-10-09T10:37:47.945Z,13.86
2022-10-09T10:38:47.451Z,13.93
2022-10-09T10:39:47.387Z,13.94
2022-10-09T10:40:47.952Z,14.03
2022-10-09T10:41:47.951Z,14.05
2022-10-09T10:42:47.233Z,14.03
2022-10-09T10:43:47.134Z,14.03
2022-10-09T10:44:47.072Z,14.18
2022-10-09T10:45:47.011Z,14.16
2022-10-09T10:46:47.012Z,14.12
2022-10-09T10:47:47.208Z,14.16
2022-10-09T10:48:46.717Z,14.19
2022-10-09T10:49:46.978Z,14.18
2022-10-09T10:50:46.689Z,14.28
2022-10-09T10:51:46.629Z,14.33
2022-10-09T10:52:46.569Z,14.30
2022-10-09T10:53:46.509Z,14.30
2022-10-09T10:54:46.438Z,14.26
2022-10-09T10:55:46.377Z,14.22
2022-10-09T10:56:46.314Z,14.36
2022-10-09T10:57:46.640Z,14.48
2022-10-09T10:58:46.457Z,14.48
2022-10-09T10:59:46.127Z,14.48
2022-10-09T11:00:46.449Z,14.45
2022-10-09T11:01:45.995Z,14.55
2022-10-09T11:02:45.992Z,14.51
2022-10-09T11:03:45.941Z,14.53
2022-10-09T11:04:45.806Z,14.58
2022-10-09T11:05:45.736Z,14.52
2022-10-09T11:06:45.679Z,14.45
2022-10-09T11:07:45.622Z,14.55
2022-10-09T11:08:45.548Z,14.59
2022-10-09T11:09:45.482Z,14.55
2022-10-09T11:10:45.418Z,14.48
2022-10-09T11:11:45.359Z,14.56
2022-10-09T11:12:48.735Z,14.56
2022-10-09T11:13:45.239Z,14.64
2022-10-09T11:14:45.164Z,14.61
2022-10-09T11:15:45.113Z,14.59
2022-10-09T11:16:45.104Z,14.63
2022-10-09T11:17:44.892Z,14.58
2022-10-09T11:18:44.915Z,14.74
2022-10-09T11:19:45.699Z,14.74
2022-10-09T11:20:44.812Z,14.78
2022-10-09T11:21:44.730Z,14.90
2022-10-09T11:22:44.669Z,14.89
2022-10-09T11:23:44.619Z,15.07
2022-10-09T11:24:44.544Z,15.01
2022-10-09T11:25:44.470Z,15.05
2022-10-09T11:26:44.337Z,15.05
2022-10-09T11:27:44.350Z,15.03
2022-10-09T11:28:44.358Z,15.05
2022-10-09T11:29:44.229Z,15.05
2022-10-09T11:30:44.160Z,15.10
2022-10-09T11:31:44.158Z,14.97
2022-10-09T11:32:44.034Z,14.96
2022-10-09T11:33:43.971Z,15.01
2022-10-09T11:34:43.902Z,15.03
2022-10-09T11:37:04.356Z,15.01
2022-10-09T11:38:04.576Z,15.05
2022-10-09T11:39:59.065Z,15.10
2022-10-09T11:40:57.736Z,15.03
2022-10-09T11:41:58.204Z,15.05
2022-10-09T11:42:57.157Z,15.01
2022-10-09T11:43:57.421Z,14.87
2022-10-09T11:44:57.078Z,14.87
2022-10-09T11:45:57.162Z,14.93
2022-10-09T11:47:00.278Z,14.93
2022-10-09T11:47:57.347Z,15.01
2022-10-09T11:48:57.017Z,15.08
2022-10-09T11:51:17.802Z,15.07
2022-10-09T11:52:17.399Z,15.14
2022-10-09T11:53:17.272Z,15.17
2022-10-09T11:54:17.660Z,15.19
2022-10-09T11:55:17.193Z,15.20
2022-10-09T11:56:17.101Z,15.08
2022-10-09T11:57:17.106Z,15.11
2022-10-09T11:58:17.697Z,14.96
2022-10-09T11:59:17.003Z,14.92
2022-10-09T12:00:17.179Z,14.89
2022-10-09T12:01:17.048Z,14.93
2022-10-09T12:02:16.794Z,14.89
2022-10-09T12:03:17.227Z,14.79
2022-10-09T12:43:49.904Z,15.01
2022-10-09T12:44:49.479Z,15.15
2022-10-09T13:11:22.693Z,15.03
2022-10-09T13:12:22.267Z,14.95
2022-10-09T13:13:22.111Z,14.89
2022-10-09T13:14:21.714Z,14.92
2022-10-09T13:15:22.069Z,14.93
2022-10-09T13:16:21.666Z,14.74
2022-10-09T13:17:21.802Z,14.92
2022-10-09T13:18:21.842Z,14.89
2022-10-09T13:19:21.610Z,14.95
2022-10-09T13:20:21.509Z,14.87
2022-10-09T13:21:22.099Z,14.97
2022-10-09T13:22:22.098Z,14.86
2022-10-09T13:23:21.137Z,14.89
2022-10-09T13:24:28.890Z,14.90
2022-10-09T13:26:25.405Z,15.01
2022-10-09T13:27:25.320Z,14.96
2022-10-09T13:31:01.782Z,14.99
2022-10-09T13:32:01.487Z,15.08
2022-10-09T13:33:01.415Z,15.14
2022-10-09T13:34:01.369Z,15.05
2022-10-09T13:35:01.311Z,15.12
2022-10-09T13:36:01.221Z,15.22
2022-10-09T13:37:01.173Z,15.23
2022-10-09T13:38:01.115Z,15.26
2022-10-09T13:39:01.057Z,15.17
2022-10-09T13:40:00.987Z,15.07
2022-10-09T13:41:00.932Z,15.17
2022-10-09T13:42:00.895Z,15.10
2022-10-09T13:43:00.779Z,15.10
2022-10-09T13:44:00.717Z,15.11
2022-10-09T13:45:00.657Z,15.10
2022-10-09T13:46:00.658Z,15.14
2022-10-09T13:47:00.527Z,15.07
2022-10-09T13:48:00.468Z,14.97
2022-10-09T13:49:00.404Z,14.95
2022-10-09T13:50:00.342Z,14.99
2022-10-09T13:51:00.284Z,14.97
2022-10-09T13:52:00.212Z,15.07
2022-10-09T13:53:00.148Z,15.11
2022-10-09T13:54:00.103Z,15.10
2022-10-09T13:55:00.025Z,15.15
2022-10-09T13:56:01.280Z,15.14
2022-10-09T13:56:59.901Z,15.12
2022-10-09T13:57:59.838Z,15.19
2022-10-09T13:58:59.772Z,15.23
2022-10-09T13:59:59.720Z,15.07
2022-10-09T14:00:59.687Z,15.17
2022-10-09T14:01:59.618Z,15.12
2022-10-09T14:02:59.517Z,15.11
2022-10-09T14:03:59.456Z,15.12
2022-10-09T14:04:59.392Z,15.12
2022-10-09T14:05:59.333Z,15.17
2022-10-09T14:06:59.275Z,15.20
2022-10-09T14:07:59.207Z,15.26
2022-10-09T14:08:59.145Z,15.20
2022-10-09T14:09:59.082Z,15.22
2022-10-09T14:10:59.016Z,15.23
2022-10-09T14:11:58.965Z,15.25
2022-10-09T14:12:58.892Z,15.35
2022-10-09T14:13:58.824Z,15.33
2022-10-09T14:14:58.761Z,15.36
2022-10-09T14:15:58.713Z,15.41
2022-10-09T14:16:58.639Z,15.33
2022-10-09T14:17:58.590Z,15.35
2022-10-09T14:18:58.513Z,15.22
2022-10-09T14:19:58.447Z,15.23
2022-10-09T14:20:58.387Z,15.30
2022-10-09T14:21:58.330Z,15.26
2022-10-09T14:22:58.260Z,15.27
2022-10-09T14:23:58.192Z,15.25
2022-10-09T14:24:58.140Z,15.23
2022-10-09T14:25:58.072Z,15.19
2022-10-09T14:26:58.005Z,15.23
2022-10-09T14:27:57.946Z,15.30
2022-10-09T14:28:57.885Z,15.29
2022-10-09T14:29:57.816Z,15.40
2022-10-09T14:30:57.760Z,15.40
2022-10-09T14:31:57.700Z,15.22
2022-10-09T14:32:57.628Z,15.33
2022-10-09T14:33:57.568Z,15.22
2022-10-09T14:34:57.506Z,15.22
2022-10-09T14:35:57.439Z,15.22
2022-10-09T14:36:57.379Z,15.22
2022-10-09T14:37:57.323Z,15.25
2022-10-09T14:38:57.257Z,15.33
2022-10-09T14:39:57.186Z,15.22
2022-10-09T14:40:57.125Z,15.20
2022-10-09T14:41:57.064Z,15.15
2022-10-09T14:42:56.996Z,15.25
2022-10-09T14:43:56.949Z,15.27
2022-10-09T14:44:56.875Z,15.25
2022-10-09T14:45:56.816Z,15.22
2022-10-09T14:46:56.760Z,15.26
2022-10-09T14:47:56.692Z,15.26
2022-10-09T14:48:56.634Z,15.25
2022-10-09T14:49:56.555Z,15.19
2022-10-09T14:50:56.495Z,15.26
2022-10-09T14:51:56.456Z,15.23
2022-10-09T14:52:56.372Z,15.23
2022-10-09T14:53:56.307Z,15.20
2022-10-09T14:54:56.246Z,15.29
2022-10-09T14:55:56.184Z,15.19
2022-10-09T14:56:56.117Z,15.25
2022-10-09T14:57:56.057Z,15.14
2022-10-09T14:58:55.993Z,15.05
2022-10-09T14:59:55.931Z,15.15
2022-10-09T15:00:55.870Z,15.10
2022-10-09T15:01:55.803Z,15.11
2022-10-09T15:02:58.950Z,15.15
2022-10-09T15:03:55.729Z,15.07
2022-10-09T15:04:55.615Z,15.10
2022-10-09T15:05:55.561Z,15.01
2022-10-09T15:06:55.485Z,15.11
2022-10-09T15:07:55.419Z,15.05
2022-10-09T15:08:55.381Z,15.05
2022-10-09T15:09:55.302Z,15.05
2022-10-09T15:11:03.925Z,14.97
2022-10-09T15:14:33.669Z,15.04
2022-10-09T15:15:33.395Z,15.07
2022-10-09T15:17:37.961Z,15.04
2022-10-09T15:18:37.713Z,15.14
2022-10-09T15:20:44.047Z,15.15
2022-10-09T15:21:43.963Z,15.07
2022-10-09T15:23:48.338Z,15.05
2022-10-09T15:24:48.275Z,15.14
2022-10-09T15:28:24.358Z,15.14
2022-10-09T15:29:24.105Z,15.19
2022-10-09T15:31:29.557Z,15.12
2022-10-09T15:32:29.362Z,15.10
2022-10-09T15:34:36.576Z,15.08
2022-10-09T15:35:34.649Z,15.11
2022-10-09T15:39:11.522Z,15.05
2022-10-09T15:40:11.337Z,14.93
2022-10-09T15:42:15.706Z,14.97
2022-10-09T15:43:15.611Z,14.95
2022-10-09T15:45:08.962Z,14.97
2022-10-09T15:46:08.831Z,14.93
2022-10-09T15:48:13.193Z,14.93
2022-10-09T15:49:13.122Z,14.89
2022-10-09T15:51:17.546Z,14.86
2022-10-09T15:52:17.452Z,14.82
2022-10-09T15:54:21.987Z,14.74
2022-10-09T15:55:21.686Z,14.71
2022-10-09T15:58:57.534Z,14.73
2022-10-09T15:59:57.350Z,14.82
2022-10-09T16:02:01.790Z,14.82
2022-10-09T16:03:01.620Z,14.73
2022-10-09T16:04:54.939Z,14.69
2022-10-09T16:05:54.864Z,14.67
2022-10-09T16:11:03.090Z,14.58
2022-10-09T16:12:02.969Z,14.52
2022-10-09T16:15:29.668Z,14.49
2022-10-09T16:16:29.446Z,14.51
2022-10-09T16:29:04.823Z,14.36
2022-10-09T16:30:04.677Z,14.28
2022-10-09T16:38:04.149Z,14.23
2022-10-09T16:39:04.054Z,14.22
2022-10-09T18:47:39.899Z,13.30
2022-10-09T18:48:39.688Z,13.35
2022-10-09T19:04:29.922Z,13.21
2022-10-09T19:05:29.819Z,13.20
2022-10-09T19:10:37.051Z,13.19
2022-10-09T19:11:36.955Z,13.08
2022-10-09T19:18:05.880Z,13.05
2022-10-09T19:19:05.566Z,12.96
2022-10-09T20:32:59.341Z,11.91
2022-10-09T20:33:56.732Z,11.95
2022-10-09T21:17:02.015Z,11.64
2022-10-09T21:18:01.604Z,11.61
2022-10-09T22:07:15.015Z,11.19
2022-10-09T22:08:14.683Z,11.15
2022-10-09T22:52:53.889Z,11.08
2022-10-09T22:53:53.665Z,11.00
2022-10-09T22:54:54.547Z,10.95
2022-10-09T22:55:53.345Z,11.03
2022-10-09T22:56:54.131Z,11.04
2022-10-09T22:57:53.305Z,11.04
2022-10-09T22:58:53.161Z,11.04
2022-10-09T22:59:53.092Z,11.03
2022-10-09T23:00:53.018Z,11.08
2022-10-09T23:01:53.012Z,11.03
2022-10-09T23:02:53.152Z,11.09
2022-10-09T23:03:52.819Z,11.09
2022-10-09T23:04:52.760Z,11.03
2022-10-09T23:05:52.697Z,11.05
